In Rescue
 
Open Full Screen Window  High Contrast Mode
Wind Gusting 00 knots
05
December 15, 2019 5:45 PM CST
Present Weather: Light Snow
Weather Information
Wind Direction
  200 °
Wind Speed
  05 kt (6 mph)
Wind Gust
  00 kt (0 mph)
Altimeter
29.89 in
Visibility
5 SM
Temperature
-13° C
F
Dewpoint
-16° C
F
Humidity
78%
1hr Rain Fall
00.00 in.
24hr Rain Fall
00.00 in.
Sky Condition
Overcast @ 2,700 ft
MVFR

METAR KBJI 152345Z AUTO 20005KT 5SM -SN OVC027 M13/M16 A2989 RMK AO2 T11331158

FAA Disclaimer: The data displayed is for advisory purposes only and is not to be used for flight planning or operations.